<?xml version="1.0" encoding="UTF-8" standalone="no" ?>
<gpx xmlns="http://www.topografix.com/GPX/1/1" xmlns:xsi="http://www.w3.org/2001/XMLSchema-instance" xsi:schemaLocation="http://www.topografix.com/GPX/1/1 http://www.topografix.com/GPX/1/1/gpx.xsd" version="1.1" creator="VisuGPX - https://www.visugpx.com">
  <metadata>
    <name>Saint Gens samedi 29 mai 2021</name>
  </metadata>
  <trk>
    <name><![CDATA[Saint Gens samedi 29 mai 2021]]></name>
    <trkseg>
      <trkpt lat="43.98358" lon="5.11901">
        <ele>234</ele>
        <time>2021-05-29T10:14:29+02:00</time>
      </trkpt>
      <trkpt lat="43.98374" lon="5.1188">
        <ele>238</ele>
        <time>2021-05-29T10:20:13+02:00</time>
      </trkpt>
      <trkpt lat="43.98358" lon="5.11901">
        <ele>230</ele>
        <time>2021-05-29T10:20:42+02:00</time>
      </trkpt>
      <trkpt lat="43.98335" lon="5.11909">
        <ele>234</ele>
        <time>2021-05-29T10:21:12+02:00</time>
      </trkpt>
      <trkpt lat="43.98314" lon="5.11897">
        <ele>238</ele>
        <time>2021-05-29T10:21:36+02:00</time>
      </trkpt>
      <trkpt lat="43.98327" lon="5.1187">
        <ele>237</ele>
        <time>2021-05-29T10:23:59+02:00</time>
      </trkpt>
      <trkpt lat="43.98346" lon="5.11853">
        <ele>237</ele>
        <time>2021-05-29T10:24:51+02:00</time>
      </trkpt>
      <trkpt lat="43.98365" lon="5.11835">
        <ele>233</ele>
        <time>2021-05-29T10:25:22+02:00</time>
      </trkpt>
      <trkpt lat="43.98384" lon="5.11816">
        <ele>232</ele>
        <time>2021-05-29T10:25:47+02:00</time>
      </trkpt>
      <trkpt lat="43.98404" lon="5.11802">
        <ele>225</ele>
        <time>2021-05-29T10:26:12+02:00</time>
      </trkpt>
      <trkpt lat="43.98409" lon="5.11771">
        <ele>230</ele>
        <time>2021-05-29T10:26:39+02:00</time>
      </trkpt>
      <trkpt lat="43.98401" lon="5.11743">
        <ele>228</ele>
        <time>2021-05-29T10:27:24+02:00</time>
      </trkpt>
      <trkpt lat="43.98384" lon="5.11721">
        <ele>231</ele>
        <time>2021-05-29T10:27:54+02:00</time>
      </trkpt>
      <trkpt lat="43.98366" lon="5.11701">
        <ele>232</ele>
        <time>2021-05-29T10:28:14+02:00</time>
      </trkpt>
      <trkpt lat="43.98348" lon="5.11683">
        <ele>232</ele>
        <time>2021-05-29T10:28:38+02:00</time>
      </trkpt>
      <trkpt lat="43.98333" lon="5.11658">
        <ele>237</ele>
        <time>2021-05-29T10:28:57+02:00</time>
      </trkpt>
      <trkpt lat="43.98318" lon="5.11634">
        <ele>231</ele>
        <time>2021-05-29T10:29:27+02:00</time>
      </trkpt>
      <trkpt lat="43.98302" lon="5.11612">
        <ele>233</ele>
        <time>2021-05-29T10:29:48+02:00</time>
      </trkpt>
      <trkpt lat="43.98284" lon="5.11591">
        <ele>239</ele>
        <time>2021-05-29T10:30:09+02:00</time>
      </trkpt>
      <trkpt lat="43.98266" lon="5.11569">
        <ele>238</ele>
        <time>2021-05-29T10:30:30+02:00</time>
      </trkpt>
      <trkpt lat="43.98254" lon="5.11542">
        <ele>238</ele>
        <time>2021-05-29T10:30:52+02:00</time>
      </trkpt>
      <trkpt lat="43.98241" lon="5.11515">
        <ele>233</ele>
        <time>2021-05-29T10:31:21+02:00</time>
      </trkpt>
      <trkpt lat="43.98227" lon="5.11491">
        <ele>234</ele>
        <time>2021-05-29T10:32:24+02:00</time>
      </trkpt>
      <trkpt lat="43.9821" lon="5.11469">
        <ele>233</ele>
        <time>2021-05-29T10:32:48+02:00</time>
      </trkpt>
      <trkpt lat="43.98231" lon="5.11458">
        <ele>244</ele>
        <time>2021-05-29T10:33:33+02:00</time>
      </trkpt>
      <trkpt lat="43.98254" lon="5.11461">
        <ele>248</ele>
        <time>2021-05-29T10:33:56+02:00</time>
      </trkpt>
      <trkpt lat="43.98278" lon="5.11464">
        <ele>248</ele>
        <time>2021-05-29T10:34:25+02:00</time>
      </trkpt>
      <trkpt lat="43.98283" lon="5.11432">
        <ele>245</ele>
        <time>2021-05-29T10:35:13+02:00</time>
      </trkpt>
      <trkpt lat="43.98277" lon="5.11402">
        <ele>250</ele>
        <time>2021-05-29T10:36:04+02:00</time>
      </trkpt>
      <trkpt lat="43.98259" lon="5.11385">
        <ele>257</ele>
        <time>2021-05-29T10:40:09+02:00</time>
      </trkpt>
      <trkpt lat="43.98259" lon="5.11353">
        <ele>265</ele>
        <time>2021-05-29T10:40:54+02:00</time>
      </trkpt>
      <trkpt lat="43.98237" lon="5.11344">
        <ele>277</ele>
        <time>2021-05-29T10:42:26+02:00</time>
      </trkpt>
      <trkpt lat="43.98215" lon="5.11344">
        <ele>278</ele>
        <time>2021-05-29T10:43:52+02:00</time>
      </trkpt>
      <trkpt lat="43.98194" lon="5.1133">
        <ele>275</ele>
        <time>2021-05-29T10:44:24+02:00</time>
      </trkpt>
      <trkpt lat="43.98172" lon="5.11318">
        <ele>275</ele>
        <time>2021-05-29T10:44:50+02:00</time>
      </trkpt>
      <trkpt lat="43.9815" lon="5.11308">
        <ele>273</ele>
        <time>2021-05-29T10:45:18+02:00</time>
      </trkpt>
      <trkpt lat="43.98129" lon="5.11298">
        <ele>272</ele>
        <time>2021-05-29T10:46:00+02:00</time>
      </trkpt>
      <trkpt lat="43.98105" lon="5.11297">
        <ele>285</ele>
        <time>2021-05-29T10:48:09+02:00</time>
      </trkpt>
      <trkpt lat="43.98083" lon="5.11291">
        <ele>283</ele>
        <time>2021-05-29T10:48:40+02:00</time>
      </trkpt>
      <trkpt lat="43.9806" lon="5.11288">
        <ele>289</ele>
        <time>2021-05-29T10:49:13+02:00</time>
      </trkpt>
      <trkpt lat="43.98037" lon="5.11291">
        <ele>300</ele>
        <time>2021-05-29T10:49:43+02:00</time>
      </trkpt>
      <trkpt lat="43.98018" lon="5.11274">
        <ele>302</ele>
        <time>2021-05-29T10:50:08+02:00</time>
      </trkpt>
      <trkpt lat="43.97997" lon="5.1126">
        <ele>302</ele>
        <time>2021-05-29T10:50:32+02:00</time>
      </trkpt>
      <trkpt lat="43.97975" lon="5.11252">
        <ele>306</ele>
        <time>2021-05-29T10:50:55+02:00</time>
      </trkpt>
      <trkpt lat="43.97957" lon="5.11232">
        <ele>309</ele>
        <time>2021-05-29T10:51:18+02:00</time>
      </trkpt>
      <trkpt lat="43.97939" lon="5.11211">
        <ele>309</ele>
        <time>2021-05-29T10:51:40+02:00</time>
      </trkpt>
      <trkpt lat="43.97919" lon="5.11196">
        <ele>309</ele>
        <time>2021-05-29T10:51:59+02:00</time>
      </trkpt>
      <trkpt lat="43.979" lon="5.11178">
        <ele>311</ele>
        <time>2021-05-29T10:52:23+02:00</time>
      </trkpt>
      <trkpt lat="43.97886" lon="5.11153">
        <ele>315</ele>
        <time>2021-05-29T10:52:46+02:00</time>
      </trkpt>
      <trkpt lat="43.97883" lon="5.11122">
        <ele>317</ele>
        <time>2021-05-29T10:53:09+02:00</time>
      </trkpt>
      <trkpt lat="43.97874" lon="5.11092">
        <ele>313</ele>
        <time>2021-05-29T10:53:32+02:00</time>
      </trkpt>
      <trkpt lat="43.97864" lon="5.11064">
        <ele>309</ele>
        <time>2021-05-29T10:53:59+02:00</time>
      </trkpt>
      <trkpt lat="43.97854" lon="5.11035">
        <ele>308</ele>
        <time>2021-05-29T10:54:27+02:00</time>
      </trkpt>
      <trkpt lat="43.97842" lon="5.11008">
        <ele>307</ele>
        <time>2021-05-29T10:54:49+02:00</time>
      </trkpt>
      <trkpt lat="43.9783" lon="5.10981">
        <ele>302</ele>
        <time>2021-05-29T10:55:14+02:00</time>
      </trkpt>
      <trkpt lat="43.97816" lon="5.11007">
        <ele>300</ele>
        <time>2021-05-29T10:56:11+02:00</time>
      </trkpt>
      <trkpt lat="43.978" lon="5.11029">
        <ele>301</ele>
        <time>2021-05-29T10:56:33+02:00</time>
      </trkpt>
      <trkpt lat="43.97783" lon="5.11051">
        <ele>306</ele>
        <time>2021-05-29T10:57:01+02:00</time>
      </trkpt>
      <trkpt lat="43.97762" lon="5.11063">
        <ele>304</ele>
        <time>2021-05-29T10:57:28+02:00</time>
      </trkpt>
      <trkpt lat="43.97747" lon="5.11086">
        <ele>308</ele>
        <time>2021-05-29T10:57:50+02:00</time>
      </trkpt>
      <trkpt lat="43.97733" lon="5.11112">
        <ele>311</ele>
        <time>2021-05-29T10:58:14+02:00</time>
      </trkpt>
      <trkpt lat="43.97717" lon="5.11135">
        <ele>310</ele>
        <time>2021-05-29T10:58:44+02:00</time>
      </trkpt>
      <trkpt lat="43.97701" lon="5.11157">
        <ele>309</ele>
        <time>2021-05-29T10:59:20+02:00</time>
      </trkpt>
      <trkpt lat="43.97686" lon="5.11182">
        <ele>314</ele>
        <time>2021-05-29T10:59:49+02:00</time>
      </trkpt>
      <trkpt lat="43.97672" lon="5.11208">
        <ele>318</ele>
        <time>2021-05-29T11:00:19+02:00</time>
      </trkpt>
      <trkpt lat="43.97655" lon="5.1123">
        <ele>319</ele>
        <time>2021-05-29T11:01:00+02:00</time>
      </trkpt>
      <trkpt lat="43.97642" lon="5.11257">
        <ele>326</ele>
        <time>2021-05-29T11:01:35+02:00</time>
      </trkpt>
      <trkpt lat="43.97622" lon="5.11269">
        <ele>338</ele>
        <time>2021-05-29T11:02:39+02:00</time>
      </trkpt>
      <trkpt lat="43.97602" lon="5.11285">
        <ele>335</ele>
        <time>2021-05-29T11:03:01+02:00</time>
      </trkpt>
      <trkpt lat="43.97581" lon="5.11301">
        <ele>333</ele>
        <time>2021-05-29T11:03:22+02:00</time>
      </trkpt>
      <trkpt lat="43.97562" lon="5.11317">
        <ele>333</ele>
        <time>2021-05-29T11:03:44+02:00</time>
      </trkpt>
      <trkpt lat="43.9754" lon="5.11328">
        <ele>340</ele>
        <time>2021-05-29T11:04:56+02:00</time>
      </trkpt>
      <trkpt lat="43.97561" lon="5.11315">
        <ele>343</ele>
        <time>2021-05-29T11:05:39+02:00</time>
      </trkpt>
      <trkpt lat="43.97581" lon="5.11298">
        <ele>340</ele>
        <time>2021-05-29T11:06:01+02:00</time>
      </trkpt>
      <trkpt lat="43.976" lon="5.11281">
        <ele>333</ele>
        <time>2021-05-29T11:06:22+02:00</time>
      </trkpt>
      <trkpt lat="43.9762" lon="5.11263">
        <ele>334</ele>
        <time>2021-05-29T11:06:41+02:00</time>
      </trkpt>
      <trkpt lat="43.97641" lon="5.11251">
        <ele>331</ele>
        <time>2021-05-29T11:07:01+02:00</time>
      </trkpt>
      <trkpt lat="43.97657" lon="5.11228">
        <ele>331</ele>
        <time>2021-05-29T11:07:25+02:00</time>
      </trkpt>
      <trkpt lat="43.97673" lon="5.11207">
        <ele>329</ele>
        <time>2021-05-29T11:07:58+02:00</time>
      </trkpt>
      <trkpt lat="43.9769" lon="5.11186">
        <ele>325</ele>
        <time>2021-05-29T11:08:24+02:00</time>
      </trkpt>
      <trkpt lat="43.97706" lon="5.11162">
        <ele>322</ele>
        <time>2021-05-29T11:08:55+02:00</time>
      </trkpt>
      <trkpt lat="43.97722" lon="5.11139">
        <ele>321</ele>
        <time>2021-05-29T11:09:16+02:00</time>
      </trkpt>
      <trkpt lat="43.97737" lon="5.11115">
        <ele>321</ele>
        <time>2021-05-29T11:09:36+02:00</time>
      </trkpt>
      <trkpt lat="43.97751" lon="5.11089">
        <ele>320</ele>
        <time>2021-05-29T11:09:57+02:00</time>
      </trkpt>
      <trkpt lat="43.97766" lon="5.11066">
        <ele>314</ele>
        <time>2021-05-29T11:10:20+02:00</time>
      </trkpt>
      <trkpt lat="43.97785" lon="5.11047">
        <ele>311</ele>
        <time>2021-05-29T11:10:43+02:00</time>
      </trkpt>
      <trkpt lat="43.97803" lon="5.11027">
        <ele>311</ele>
        <time>2021-05-29T11:11:07+02:00</time>
      </trkpt>
      <trkpt lat="43.97819" lon="5.11005">
        <ele>310</ele>
        <time>2021-05-29T11:11:28+02:00</time>
      </trkpt>
      <trkpt lat="43.97827" lon="5.10975">
        <ele>309</ele>
        <time>2021-05-29T11:11:51+02:00</time>
      </trkpt>
      <trkpt lat="43.97804" lon="5.10978">
        <ele>302</ele>
        <time>2021-05-29T11:12:15+02:00</time>
      </trkpt>
      <trkpt lat="43.97814" lon="5.10949">
        <ele>303</ele>
        <time>2021-05-29T11:13:05+02:00</time>
      </trkpt>
      <trkpt lat="43.97836" lon="5.10942">
        <ele>300</ele>
        <time>2021-05-29T11:13:28+02:00</time>
      </trkpt>
      <trkpt lat="43.97856" lon="5.10926">
        <ele>279</ele>
        <time>2021-05-29T11:14:59+02:00</time>
      </trkpt>
      <trkpt lat="43.97839" lon="5.10906">
        <ele>299</ele>
        <time>2021-05-29T11:18:04+02:00</time>
      </trkpt>
      <trkpt lat="43.97849" lon="5.10878">
        <ele>288</ele>
        <time>2021-05-29T11:19:12+02:00</time>
      </trkpt>
      <trkpt lat="43.97859" lon="5.1085">
        <ele>289</ele>
        <time>2021-05-29T11:19:40+02:00</time>
      </trkpt>
      <trkpt lat="43.97873" lon="5.10825">
        <ele>291</ele>
        <time>2021-05-29T11:20:16+02:00</time>
      </trkpt>
      <trkpt lat="43.97891" lon="5.10805">
        <ele>300</ele>
        <time>2021-05-29T11:21:25+02:00</time>
      </trkpt>
      <trkpt lat="43.97914" lon="5.10805">
        <ele>309</ele>
        <time>2021-05-29T11:23:21+02:00</time>
      </trkpt>
      <trkpt lat="43.97936" lon="5.10793">
        <ele>303</ele>
        <time>2021-05-29T11:26:20+02:00</time>
      </trkpt>
      <trkpt lat="43.97916" lon="5.10811">
        <ele>310</ele>
        <time>2021-05-29T11:29:15+02:00</time>
      </trkpt>
      <trkpt lat="43.97893" lon="5.10802">
        <ele>310</ele>
        <time>2021-05-29T11:30:13+02:00</time>
      </trkpt>
      <trkpt lat="43.97877" lon="5.10823">
        <ele>278</ele>
        <time>2021-05-29T11:31:23+02:00</time>
      </trkpt>
      <trkpt lat="43.97868" lon="5.10793">
        <ele>276</ele>
        <time>2021-05-29T11:32:20+02:00</time>
      </trkpt>
      <trkpt lat="43.97847" lon="5.10804">
        <ele>271</ele>
        <time>2021-05-29T11:37:57+02:00</time>
      </trkpt>
      <trkpt lat="43.9783" lon="5.10825">
        <ele>277</ele>
        <time>2021-05-29T11:38:29+02:00</time>
      </trkpt>
      <trkpt lat="43.97814" lon="5.10848">
        <ele>275</ele>
        <time>2021-05-29T11:38:51+02:00</time>
      </trkpt>
      <trkpt lat="43.97801" lon="5.10875">
        <ele>270</ele>
        <time>2021-05-29T11:39:26+02:00</time>
      </trkpt>
      <trkpt lat="43.97783" lon="5.10896">
        <ele>274</ele>
        <time>2021-05-29T11:40:29+02:00</time>
      </trkpt>
      <trkpt lat="43.97763" lon="5.10913">
        <ele>283</ele>
        <time>2021-05-29T11:41:07+02:00</time>
      </trkpt>
      <trkpt lat="43.97748" lon="5.10938">
        <ele>274</ele>
        <time>2021-05-29T11:41:30+02:00</time>
      </trkpt>
      <trkpt lat="43.97726" lon="5.10945">
        <ele>258</ele>
        <time>2021-05-29T11:42:00+02:00</time>
      </trkpt>
      <trkpt lat="43.97702" lon="5.1095">
        <ele>257</ele>
        <time>2021-05-29T11:42:21+02:00</time>
      </trkpt>
      <trkpt lat="43.97683" lon="5.10966">
        <ele>252</ele>
        <time>2021-05-29T11:42:45+02:00</time>
      </trkpt>
      <trkpt lat="43.97665" lon="5.10986">
        <ele>259</ele>
        <time>2021-05-29T11:43:06+02:00</time>
      </trkpt>
      <trkpt lat="43.97647" lon="5.11007">
        <ele>283</ele>
        <time>2021-05-29T11:43:37+02:00</time>
      </trkpt>
      <trkpt lat="43.97631" lon="5.11029">
        <ele>278</ele>
        <time>2021-05-29T11:44:13+02:00</time>
      </trkpt>
      <trkpt lat="43.97611" lon="5.11044">
        <ele>285</ele>
        <time>2021-05-29T11:44:43+02:00</time>
      </trkpt>
      <trkpt lat="43.9759" lon="5.11058">
        <ele>289</ele>
        <time>2021-05-29T11:45:11+02:00</time>
      </trkpt>
      <trkpt lat="43.97571" lon="5.11076">
        <ele>295</ele>
        <time>2021-05-29T11:45:45+02:00</time>
      </trkpt>
      <trkpt lat="43.97552" lon="5.11093">
        <ele>296</ele>
        <time>2021-05-29T11:46:14+02:00</time>
      </trkpt>
      <trkpt lat="43.97532" lon="5.11109">
        <ele>298</ele>
        <time>2021-05-29T11:46:34+02:00</time>
      </trkpt>
      <trkpt lat="43.97513" lon="5.11127">
        <ele>304</ele>
        <time>2021-05-29T11:47:05+02:00</time>
      </trkpt>
      <trkpt lat="43.97494" lon="5.11145">
        <ele>297</ele>
        <time>2021-05-29T11:47:32+02:00</time>
      </trkpt>
      <trkpt lat="43.97479" lon="5.11168">
        <ele>298</ele>
        <time>2021-05-29T11:48:01+02:00</time>
      </trkpt>
      <trkpt lat="43.9746" lon="5.11187">
        <ele>299</ele>
        <time>2021-05-29T11:48:28+02:00</time>
      </trkpt>
      <trkpt lat="43.9744" lon="5.11203">
        <ele>305</ele>
        <time>2021-05-29T11:48:54+02:00</time>
      </trkpt>
      <trkpt lat="43.97419" lon="5.11215">
        <ele>310</ele>
        <time>2021-05-29T11:49:20+02:00</time>
      </trkpt>
      <trkpt lat="43.97397" lon="5.11221">
        <ele>311</ele>
        <time>2021-05-29T11:49:46+02:00</time>
      </trkpt>
      <trkpt lat="43.97374" lon="5.11222">
        <ele>312</ele>
        <time>2021-05-29T11:50:11+02:00</time>
      </trkpt>
      <trkpt lat="43.97353" lon="5.11234">
        <ele>321</ele>
        <time>2021-05-29T11:50:39+02:00</time>
      </trkpt>
      <trkpt lat="43.9733" lon="5.11239">
        <ele>319</ele>
        <time>2021-05-29T11:51:09+02:00</time>
      </trkpt>
      <trkpt lat="43.97308" lon="5.11234">
        <ele>322</ele>
        <time>2021-05-29T11:51:43+02:00</time>
      </trkpt>
      <trkpt lat="43.97285" lon="5.11232">
        <ele>322</ele>
        <time>2021-05-29T11:52:37+02:00</time>
      </trkpt>
      <trkpt lat="43.97263" lon="5.11224">
        <ele>331</ele>
        <time>2021-05-29T11:53:06+02:00</time>
      </trkpt>
      <trkpt lat="43.97241" lon="5.11215">
        <ele>331</ele>
        <time>2021-05-29T11:53:34+02:00</time>
      </trkpt>
      <trkpt lat="43.97219" lon="5.11208">
        <ele>340</ele>
        <time>2021-05-29T11:53:59+02:00</time>
      </trkpt>
      <trkpt lat="43.97198" lon="5.11193">
        <ele>343</ele>
        <time>2021-05-29T11:54:32+02:00</time>
      </trkpt>
      <trkpt lat="43.97176" lon="5.11186">
        <ele>353</ele>
        <time>2021-05-29T11:55:12+02:00</time>
      </trkpt>
      <trkpt lat="43.97154" lon="5.11196">
        <ele>349</ele>
        <time>2021-05-29T11:59:03+02:00</time>
      </trkpt>
      <trkpt lat="43.97133" lon="5.11208">
        <ele>352</ele>
        <time>2021-05-29T11:59:25+02:00</time>
      </trkpt>
      <trkpt lat="43.97111" lon="5.11218">
        <ele>352</ele>
        <time>2021-05-29T11:59:51+02:00</time>
      </trkpt>
      <trkpt lat="43.9709" lon="5.1123">
        <ele>354</ele>
        <time>2021-05-29T12:00:15+02:00</time>
      </trkpt>
      <trkpt lat="43.9707" lon="5.11245">
        <ele>358</ele>
        <time>2021-05-29T12:00:39+02:00</time>
      </trkpt>
      <trkpt lat="43.97048" lon="5.11256">
        <ele>353</ele>
        <time>2021-05-29T12:01:04+02:00</time>
      </trkpt>
      <trkpt lat="43.97028" lon="5.11272">
        <ele>355</ele>
        <time>2021-05-29T12:01:24+02:00</time>
      </trkpt>
      <trkpt lat="43.97009" lon="5.1129">
        <ele>356</ele>
        <time>2021-05-29T12:01:47+02:00</time>
      </trkpt>
      <trkpt lat="43.96993" lon="5.11313">
        <ele>360</ele>
        <time>2021-05-29T12:02:08+02:00</time>
      </trkpt>
      <trkpt lat="43.96979" lon="5.11339">
        <ele>364</ele>
        <time>2021-05-29T12:02:32+02:00</time>
      </trkpt>
      <trkpt lat="43.96966" lon="5.11364">
        <ele>364</ele>
        <time>2021-05-29T12:02:56+02:00</time>
      </trkpt>
      <trkpt lat="43.96956" lon="5.11394">
        <ele>369</ele>
        <time>2021-05-29T12:03:19+02:00</time>
      </trkpt>
      <trkpt lat="43.96968" lon="5.11422">
        <ele>368</ele>
        <time>2021-05-29T12:03:50+02:00</time>
      </trkpt>
      <trkpt lat="43.96981" lon="5.1145">
        <ele>367</ele>
        <time>2021-05-29T12:04:14+02:00</time>
      </trkpt>
      <trkpt lat="43.9697" lon="5.11479">
        <ele>364</ele>
        <time>2021-05-29T12:05:02+02:00</time>
      </trkpt>
      <trkpt lat="43.96948" lon="5.11484">
        <ele>368</ele>
        <time>2021-05-29T13:08:59+02:00</time>
      </trkpt>
      <trkpt lat="43.96939" lon="5.11513">
        <ele>368</ele>
        <time>2021-05-29T13:09:23+02:00</time>
      </trkpt>
      <trkpt lat="43.96928" lon="5.11542">
        <ele>371</ele>
        <time>2021-05-29T13:09:45+02:00</time>
      </trkpt>
      <trkpt lat="43.96916" lon="5.11569">
        <ele>370</ele>
        <time>2021-05-29T13:10:12+02:00</time>
      </trkpt>
      <trkpt lat="43.96896" lon="5.11585">
        <ele>375</ele>
        <time>2021-05-29T13:10:38+02:00</time>
      </trkpt>
      <trkpt lat="43.96872" lon="5.11585">
        <ele>373</ele>
        <time>2021-05-29T13:11:02+02:00</time>
      </trkpt>
      <trkpt lat="43.96852" lon="5.11598">
        <ele>373</ele>
        <time>2021-05-29T13:11:33+02:00</time>
      </trkpt>
      <trkpt lat="43.96832" lon="5.11614">
        <ele>370</ele>
        <time>2021-05-29T13:12:41+02:00</time>
      </trkpt>
      <trkpt lat="43.96808" lon="5.11618">
        <ele>369</ele>
        <time>2021-05-29T13:13:02+02:00</time>
      </trkpt>
      <trkpt lat="43.96789" lon="5.11635">
        <ele>369</ele>
        <time>2021-05-29T13:13:27+02:00</time>
      </trkpt>
      <trkpt lat="43.96776" lon="5.11661">
        <ele>367</ele>
        <time>2021-05-29T13:13:47+02:00</time>
      </trkpt>
      <trkpt lat="43.96755" lon="5.11676">
        <ele>366</ele>
        <time>2021-05-29T13:14:09+02:00</time>
      </trkpt>
      <trkpt lat="43.96732" lon="5.11682">
        <ele>362</ele>
        <time>2021-05-29T13:14:31+02:00</time>
      </trkpt>
      <trkpt lat="43.96709" lon="5.11691">
        <ele>364</ele>
        <time>2021-05-29T13:14:51+02:00</time>
      </trkpt>
      <trkpt lat="43.96688" lon="5.11702">
        <ele>363</ele>
        <time>2021-05-29T13:15:16+02:00</time>
      </trkpt>
      <trkpt lat="43.96684" lon="5.11733">
        <ele>360</ele>
        <time>2021-05-29T13:16:08+02:00</time>
      </trkpt>
      <trkpt lat="43.96684" lon="5.11765">
        <ele>358</ele>
        <time>2021-05-29T13:16:32+02:00</time>
      </trkpt>
      <trkpt lat="43.96686" lon="5.11797">
        <ele>359</ele>
        <time>2021-05-29T13:16:56+02:00</time>
      </trkpt>
      <trkpt lat="43.96679" lon="5.11827">
        <ele>359</ele>
        <time>2021-05-29T13:17:19+02:00</time>
      </trkpt>
      <trkpt lat="43.96701" lon="5.11835">
        <ele>356</ele>
        <time>2021-05-29T13:18:15+02:00</time>
      </trkpt>
      <trkpt lat="43.96723" lon="5.11842">
        <ele>357</ele>
        <time>2021-05-29T13:18:47+02:00</time>
      </trkpt>
      <trkpt lat="43.96746" lon="5.11849">
        <ele>360</ele>
        <time>2021-05-29T13:19:33+02:00</time>
      </trkpt>
      <trkpt lat="43.96768" lon="5.11855">
        <ele>361</ele>
        <time>2021-05-29T13:19:56+02:00</time>
      </trkpt>
      <trkpt lat="43.96791" lon="5.11858">
        <ele>358</ele>
        <time>2021-05-29T13:20:33+02:00</time>
      </trkpt>
      <trkpt lat="43.96813" lon="5.11867">
        <ele>360</ele>
        <time>2021-05-29T13:20:55+02:00</time>
      </trkpt>
      <trkpt lat="43.96833" lon="5.11882">
        <ele>360</ele>
        <time>2021-05-29T13:21:19+02:00</time>
      </trkpt>
      <trkpt lat="43.96854" lon="5.11896">
        <ele>361</ele>
        <time>2021-05-29T13:21:44+02:00</time>
      </trkpt>
      <trkpt lat="43.9687" lon="5.11919">
        <ele>363</ele>
        <time>2021-05-29T13:22:07+02:00</time>
      </trkpt>
      <trkpt lat="43.9688" lon="5.11948">
        <ele>363</ele>
        <time>2021-05-29T13:22:31+02:00</time>
      </trkpt>
      <trkpt lat="43.96892" lon="5.11975">
        <ele>360</ele>
        <time>2021-05-29T13:22:54+02:00</time>
      </trkpt>
      <trkpt lat="43.96903" lon="5.12003">
        <ele>359</ele>
        <time>2021-05-29T13:23:20+02:00</time>
      </trkpt>
      <trkpt lat="43.96906" lon="5.12034">
        <ele>360</ele>
        <time>2021-05-29T13:23:49+02:00</time>
      </trkpt>
      <trkpt lat="43.96912" lon="5.12065">
        <ele>357</ele>
        <time>2021-05-29T13:24:11+02:00</time>
      </trkpt>
      <trkpt lat="43.96912" lon="5.12097">
        <ele>356</ele>
        <time>2021-05-29T13:24:31+02:00</time>
      </trkpt>
      <trkpt lat="43.96913" lon="5.12129">
        <ele>360</ele>
        <time>2021-05-29T13:24:53+02:00</time>
      </trkpt>
      <trkpt lat="43.96911" lon="5.12162">
        <ele>358</ele>
        <time>2021-05-29T13:25:12+02:00</time>
      </trkpt>
      <trkpt lat="43.96907" lon="5.12194">
        <ele>352</ele>
        <time>2021-05-29T13:25:34+02:00</time>
      </trkpt>
      <trkpt lat="43.96905" lon="5.12226">
        <ele>358</ele>
        <time>2021-05-29T13:25:53+02:00</time>
      </trkpt>
      <trkpt lat="43.96902" lon="5.12257">
        <ele>357</ele>
        <time>2021-05-29T13:26:11+02:00</time>
      </trkpt>
      <trkpt lat="43.969" lon="5.12288">
        <ele>357</ele>
        <time>2021-05-29T13:26:32+02:00</time>
      </trkpt>
      <trkpt lat="43.96896" lon="5.1232">
        <ele>349</ele>
        <time>2021-05-29T13:26:58+02:00</time>
      </trkpt>
      <trkpt lat="43.96889" lon="5.12351">
        <ele>349</ele>
        <time>2021-05-29T13:27:17+02:00</time>
      </trkpt>
      <trkpt lat="43.9688" lon="5.1238">
        <ele>354</ele>
        <time>2021-05-29T13:27:38+02:00</time>
      </trkpt>
      <trkpt lat="43.96861" lon="5.12399">
        <ele>349</ele>
        <time>2021-05-29T13:28:05+02:00</time>
      </trkpt>
      <trkpt lat="43.96853" lon="5.12428">
        <ele>348</ele>
        <time>2021-05-29T13:28:21+02:00</time>
      </trkpt>
      <trkpt lat="43.96852" lon="5.1246">
        <ele>343</ele>
        <time>2021-05-29T13:29:33+02:00</time>
      </trkpt>
      <trkpt lat="43.96838" lon="5.12485">
        <ele>337</ele>
        <time>2021-05-29T13:31:05+02:00</time>
      </trkpt>
      <trkpt lat="43.96836" lon="5.12517">
        <ele>340</ele>
        <time>2021-05-29T13:31:33+02:00</time>
      </trkpt>
      <trkpt lat="43.96838" lon="5.12549">
        <ele>343</ele>
        <time>2021-05-29T13:31:57+02:00</time>
      </trkpt>
      <trkpt lat="43.96838" lon="5.1258">
        <ele>347</ele>
        <time>2021-05-29T13:32:20+02:00</time>
      </trkpt>
      <trkpt lat="43.96836" lon="5.12611">
        <ele>360</ele>
        <time>2021-05-29T13:33:14+02:00</time>
      </trkpt>
      <trkpt lat="43.96828" lon="5.12641">
        <ele>358</ele>
        <time>2021-05-29T13:33:57+02:00</time>
      </trkpt>
      <trkpt lat="43.96824" lon="5.12673">
        <ele>366</ele>
        <time>2021-05-29T13:34:26+02:00</time>
      </trkpt>
      <trkpt lat="43.96832" lon="5.12703">
        <ele>360</ele>
        <time>2021-05-29T13:34:51+02:00</time>
      </trkpt>
      <trkpt lat="43.9685" lon="5.12725">
        <ele>367</ele>
        <time>2021-05-29T13:35:21+02:00</time>
      </trkpt>
      <trkpt lat="43.96869" lon="5.12741">
        <ele>373</ele>
        <time>2021-05-29T13:35:52+02:00</time>
      </trkpt>
      <trkpt lat="43.9689" lon="5.12754">
        <ele>383</ele>
        <time>2021-05-29T13:36:50+02:00</time>
      </trkpt>
      <trkpt lat="43.96905" lon="5.12777">
        <ele>381</ele>
        <time>2021-05-29T13:37:15+02:00</time>
      </trkpt>
      <trkpt lat="43.96913" lon="5.12807">
        <ele>381</ele>
        <time>2021-05-29T13:37:39+02:00</time>
      </trkpt>
      <trkpt lat="43.96927" lon="5.12832">
        <ele>386</ele>
        <time>2021-05-29T13:38:04+02:00</time>
      </trkpt>
      <trkpt lat="43.96942" lon="5.12856">
        <ele>379</ele>
        <time>2021-05-29T13:38:46+02:00</time>
      </trkpt>
      <trkpt lat="43.9693" lon="5.12885">
        <ele>384</ele>
        <time>2021-05-29T13:42:29+02:00</time>
      </trkpt>
      <trkpt lat="43.96907" lon="5.12886">
        <ele>388</ele>
        <time>2021-05-29T13:42:57+02:00</time>
      </trkpt>
      <trkpt lat="43.96886" lon="5.12897">
        <ele>397</ele>
        <time>2021-05-29T13:43:41+02:00</time>
      </trkpt>
      <trkpt lat="43.96865" lon="5.12912">
        <ele>402</ele>
        <time>2021-05-29T13:44:03+02:00</time>
      </trkpt>
      <trkpt lat="43.96844" lon="5.12927">
        <ele>404</ele>
        <time>2021-05-29T13:44:31+02:00</time>
      </trkpt>
      <trkpt lat="43.96824" lon="5.1294">
        <ele>397</ele>
        <time>2021-05-29T13:45:01+02:00</time>
      </trkpt>
      <trkpt lat="43.96821" lon="5.12972">
        <ele>394</ele>
        <time>2021-05-29T13:46:17+02:00</time>
      </trkpt>
      <trkpt lat="43.96835" lon="5.12997">
        <ele>386</ele>
        <time>2021-05-29T13:46:40+02:00</time>
      </trkpt>
      <trkpt lat="43.96859" lon="5.12991">
        <ele>394</ele>
        <time>2021-05-29T13:47:05+02:00</time>
      </trkpt>
      <trkpt lat="43.96882" lon="5.12995">
        <ele>402</ele>
        <time>2021-05-29T13:47:27+02:00</time>
      </trkpt>
      <trkpt lat="43.96906" lon="5.12999">
        <ele>391</ele>
        <time>2021-05-29T13:47:48+02:00</time>
      </trkpt>
      <trkpt lat="43.96928" lon="5.13001">
        <ele>380</ele>
        <time>2021-05-29T13:48:08+02:00</time>
      </trkpt>
      <trkpt lat="43.96951" lon="5.12995">
        <ele>381</ele>
        <time>2021-05-29T13:48:36+02:00</time>
      </trkpt>
      <trkpt lat="43.96973" lon="5.13006">
        <ele>379</ele>
        <time>2021-05-29T13:49:27+02:00</time>
      </trkpt>
      <trkpt lat="43.96989" lon="5.13027">
        <ele>383</ele>
        <time>2021-05-29T13:50:22+02:00</time>
      </trkpt>
      <trkpt lat="43.97007" lon="5.13047">
        <ele>376</ele>
        <time>2021-05-29T13:50:49+02:00</time>
      </trkpt>
      <trkpt lat="43.9699" lon="5.13068">
        <ele>368</ele>
        <time>2021-05-29T13:51:30+02:00</time>
      </trkpt>
      <trkpt lat="43.96971" lon="5.13087">
        <ele>365</ele>
        <time>2021-05-29T13:51:55+02:00</time>
      </trkpt>
      <trkpt lat="43.96953" lon="5.13107">
        <ele>370</ele>
        <time>2021-05-29T13:52:17+02:00</time>
      </trkpt>
      <trkpt lat="43.96936" lon="5.13127">
        <ele>368</ele>
        <time>2021-05-29T13:52:37+02:00</time>
      </trkpt>
      <trkpt lat="43.96958" lon="5.13137">
        <ele>373</ele>
        <time>2021-05-29T13:53:18+02:00</time>
      </trkpt>
      <trkpt lat="43.96978" lon="5.13125">
        <ele>361</ele>
        <time>2021-05-29T13:54:07+02:00</time>
      </trkpt>
      <trkpt lat="43.97" lon="5.13115">
        <ele>359</ele>
        <time>2021-05-29T13:54:40+02:00</time>
      </trkpt>
      <trkpt lat="43.97023" lon="5.13111">
        <ele>356</ele>
        <time>2021-05-29T13:55:35+02:00</time>
      </trkpt>
      <trkpt lat="43.97046" lon="5.13105">
        <ele>352</ele>
        <time>2021-05-29T13:55:55+02:00</time>
      </trkpt>
      <trkpt lat="43.97069" lon="5.13105">
        <ele>341</ele>
        <time>2021-05-29T13:56:18+02:00</time>
      </trkpt>
      <trkpt lat="43.97091" lon="5.13112">
        <ele>335</ele>
        <time>2021-05-29T13:56:44+02:00</time>
      </trkpt>
      <trkpt lat="43.97113" lon="5.13118">
        <ele>329</ele>
        <time>2021-05-29T13:57:09+02:00</time>
      </trkpt>
      <trkpt lat="43.97135" lon="5.13128">
        <ele>327</ele>
        <time>2021-05-29T13:57:28+02:00</time>
      </trkpt>
      <trkpt lat="43.97157" lon="5.13137">
        <ele>325</ele>
        <time>2021-05-29T13:57:49+02:00</time>
      </trkpt>
      <trkpt lat="43.97177" lon="5.13151">
        <ele>322</ele>
        <time>2021-05-29T13:58:57+02:00</time>
      </trkpt>
      <trkpt lat="43.97198" lon="5.13165">
        <ele>314</ele>
        <time>2021-05-29T13:59:29+02:00</time>
      </trkpt>
      <trkpt lat="43.97218" lon="5.1318">
        <ele>314</ele>
        <time>2021-05-29T13:59:51+02:00</time>
      </trkpt>
      <trkpt lat="43.97238" lon="5.13196">
        <ele>314</ele>
        <time>2021-05-29T14:00:18+02:00</time>
      </trkpt>
      <trkpt lat="43.97258" lon="5.13215">
        <ele>315</ele>
        <time>2021-05-29T14:00:44+02:00</time>
      </trkpt>
      <trkpt lat="43.97279" lon="5.13228">
        <ele>313</ele>
        <time>2021-05-29T14:01:06+02:00</time>
      </trkpt>
      <trkpt lat="43.97283" lon="5.1326">
        <ele>307</ele>
        <time>2021-05-29T14:01:45+02:00</time>
      </trkpt>
      <trkpt lat="43.97266" lon="5.1328">
        <ele>319</ele>
        <time>2021-05-29T14:02:35+02:00</time>
      </trkpt>
      <trkpt lat="43.97253" lon="5.13306">
        <ele>306</ele>
        <time>2021-05-29T14:03:48+02:00</time>
      </trkpt>
      <trkpt lat="43.97271" lon="5.13286">
        <ele>304</ele>
        <time>2021-05-29T14:06:26+02:00</time>
      </trkpt>
      <trkpt lat="43.97287" lon="5.13262">
        <ele>310</ele>
        <time>2021-05-29T14:06:48+02:00</time>
      </trkpt>
      <trkpt lat="43.97309" lon="5.13252">
        <ele>308</ele>
        <time>2021-05-29T14:07:09+02:00</time>
      </trkpt>
      <trkpt lat="43.97331" lon="5.13243">
        <ele>300</ele>
        <time>2021-05-29T14:07:40+02:00</time>
      </trkpt>
      <trkpt lat="43.97354" lon="5.13236">
        <ele>303</ele>
        <time>2021-05-29T14:08:20+02:00</time>
      </trkpt>
      <trkpt lat="43.97375" lon="5.13223">
        <ele>300</ele>
        <time>2021-05-29T14:08:41+02:00</time>
      </trkpt>
      <trkpt lat="43.97399" lon="5.13218">
        <ele>300</ele>
        <time>2021-05-29T14:09:45+02:00</time>
      </trkpt>
      <trkpt lat="43.97422" lon="5.13216">
        <ele>301</ele>
        <time>2021-05-29T14:10:07+02:00</time>
      </trkpt>
      <trkpt lat="43.97444" lon="5.1321">
        <ele>295</ele>
        <time>2021-05-29T14:10:29+02:00</time>
      </trkpt>
      <trkpt lat="43.97467" lon="5.13209">
        <ele>295</ele>
        <time>2021-05-29T14:10:49+02:00</time>
      </trkpt>
      <trkpt lat="43.97491" lon="5.13207">
        <ele>292</ele>
        <time>2021-05-29T14:11:10+02:00</time>
      </trkpt>
      <trkpt lat="43.97514" lon="5.13208">
        <ele>289</ele>
        <time>2021-05-29T14:11:29+02:00</time>
      </trkpt>
      <trkpt lat="43.97536" lon="5.13216">
        <ele>295</ele>
        <time>2021-05-29T14:11:51+02:00</time>
      </trkpt>
      <trkpt lat="43.97516" lon="5.13202">
        <ele>290</ele>
        <time>2021-05-29T14:15:58+02:00</time>
      </trkpt>
      <trkpt lat="43.97494" lon="5.13192">
        <ele>284</ele>
        <time>2021-05-29T14:16:20+02:00</time>
      </trkpt>
      <trkpt lat="43.97472" lon="5.13201">
        <ele>291</ele>
        <time>2021-05-29T14:16:42+02:00</time>
      </trkpt>
      <trkpt lat="43.97452" lon="5.13215">
        <ele>300</ele>
        <time>2021-05-29T14:17:01+02:00</time>
      </trkpt>
      <trkpt lat="43.97429" lon="5.13212">
        <ele>294</ele>
        <time>2021-05-29T14:17:23+02:00</time>
      </trkpt>
      <trkpt lat="43.97406" lon="5.13209">
        <ele>291</ele>
        <time>2021-05-29T14:17:44+02:00</time>
      </trkpt>
      <trkpt lat="43.97384" lon="5.13219">
        <ele>289</ele>
        <time>2021-05-29T14:18:07+02:00</time>
      </trkpt>
      <trkpt lat="43.97361" lon="5.13226">
        <ele>288</ele>
        <time>2021-05-29T14:18:27+02:00</time>
      </trkpt>
      <trkpt lat="43.97341" lon="5.13242">
        <ele>300</ele>
        <time>2021-05-29T14:18:53+02:00</time>
      </trkpt>
      <trkpt lat="43.97319" lon="5.13251">
        <ele>306</ele>
        <time>2021-05-29T14:19:15+02:00</time>
      </trkpt>
      <trkpt lat="43.97297" lon="5.13258">
        <ele>309</ele>
        <time>2021-05-29T14:20:01+02:00</time>
      </trkpt>
      <trkpt lat="43.97278" lon="5.13275">
        <ele>309</ele>
        <time>2021-05-29T14:20:20+02:00</time>
      </trkpt>
      <trkpt lat="43.97261" lon="5.13297">
        <ele>306</ele>
        <time>2021-05-29T14:20:42+02:00</time>
      </trkpt>
      <trkpt lat="43.97241" lon="5.13312">
        <ele>314</ele>
        <time>2021-05-29T14:21:22+02:00</time>
      </trkpt>
      <trkpt lat="43.97218" lon="5.13313">
        <ele>320</ele>
        <time>2021-05-29T14:21:42+02:00</time>
      </trkpt>
      <trkpt lat="43.97196" lon="5.13307">
        <ele>321</ele>
        <time>2021-05-29T14:22:00+02:00</time>
      </trkpt>
      <trkpt lat="43.97219" lon="5.1331">
        <ele>326</ele>
        <time>2021-05-29T14:25:33+02:00</time>
      </trkpt>
      <trkpt lat="43.97243" lon="5.13307">
        <ele>326</ele>
        <time>2021-05-29T14:25:52+02:00</time>
      </trkpt>
      <trkpt lat="43.97263" lon="5.1329">
        <ele>317</ele>
        <time>2021-05-29T14:26:18+02:00</time>
      </trkpt>
      <trkpt lat="43.97283" lon="5.13273">
        <ele>304</ele>
        <time>2021-05-29T14:26:35+02:00</time>
      </trkpt>
      <trkpt lat="43.97301" lon="5.13253">
        <ele>295</ele>
        <time>2021-05-29T14:27:00+02:00</time>
      </trkpt>
      <trkpt lat="43.97323" lon="5.13248">
        <ele>317</ele>
        <time>2021-05-29T14:27:30+02:00</time>
      </trkpt>
      <trkpt lat="43.97346" lon="5.13253">
        <ele>309</ele>
        <time>2021-05-29T14:27:59+02:00</time>
      </trkpt>
      <trkpt lat="43.9737" lon="5.13253">
        <ele>312</ele>
        <time>2021-05-29T14:28:17+02:00</time>
      </trkpt>
      <trkpt lat="43.97392" lon="5.13259">
        <ele>306</ele>
        <time>2021-05-29T14:29:09+02:00</time>
      </trkpt>
      <trkpt lat="43.97396" lon="5.13291">
        <ele>306</ele>
        <time>2021-05-29T14:29:32+02:00</time>
      </trkpt>
      <trkpt lat="43.97378" lon="5.13311">
        <ele>308</ele>
        <time>2021-05-29T14:29:55+02:00</time>
      </trkpt>
      <trkpt lat="43.97354" lon="5.13312">
        <ele>311</ele>
        <time>2021-05-29T14:30:15+02:00</time>
      </trkpt>
      <trkpt lat="43.97332" lon="5.13303">
        <ele>310</ele>
        <time>2021-05-29T14:30:34+02:00</time>
      </trkpt>
      <trkpt lat="43.97308" lon="5.13299">
        <ele>308</ele>
        <time>2021-05-29T14:30:54+02:00</time>
      </trkpt>
      <trkpt lat="43.97303" lon="5.1333">
        <ele>321</ele>
        <time>2021-05-29T14:31:43+02:00</time>
      </trkpt>
      <trkpt lat="43.97322" lon="5.1335">
        <ele>323</ele>
        <time>2021-05-29T14:32:04+02:00</time>
      </trkpt>
      <trkpt lat="43.97344" lon="5.13356">
        <ele>328</ele>
        <time>2021-05-29T14:32:25+02:00</time>
      </trkpt>
      <trkpt lat="43.97323" lon="5.13345">
        <ele>315</ele>
        <time>2021-05-29T14:35:46+02:00</time>
      </trkpt>
      <trkpt lat="43.97308" lon="5.13321">
        <ele>306</ele>
        <time>2021-05-29T14:36:13+02:00</time>
      </trkpt>
      <trkpt lat="43.97309" lon="5.13289">
        <ele>297</ele>
        <time>2021-05-29T14:36:34+02:00</time>
      </trkpt>
      <trkpt lat="43.97289" lon="5.13273">
        <ele>296</ele>
        <time>2021-05-29T14:36:49+02:00</time>
      </trkpt>
      <trkpt lat="43.9727" lon="5.13291">
        <ele>308</ele>
        <time>2021-05-29T14:37:13+02:00</time>
      </trkpt>
      <trkpt lat="43.97249" lon="5.13306">
        <ele>306</ele>
        <time>2021-05-29T14:37:37+02:00</time>
      </trkpt>
      <trkpt lat="43.97226" lon="5.13313">
        <ele>311</ele>
        <time>2021-05-29T14:37:54+02:00</time>
      </trkpt>
      <trkpt lat="43.97203" lon="5.13312">
        <ele>308</ele>
        <time>2021-05-29T14:38:17+02:00</time>
      </trkpt>
      <trkpt lat="43.9718" lon="5.13308">
        <ele>306</ele>
        <time>2021-05-29T14:38:35+02:00</time>
      </trkpt>
      <trkpt lat="43.97159" lon="5.13317">
        <ele>304</ele>
        <time>2021-05-29T14:38:55+02:00</time>
      </trkpt>
      <trkpt lat="43.97142" lon="5.13341">
        <ele>306</ele>
        <time>2021-05-29T14:39:14+02:00</time>
      </trkpt>
      <trkpt lat="43.97126" lon="5.13365">
        <ele>311</ele>
        <time>2021-05-29T14:39:33+02:00</time>
      </trkpt>
      <trkpt lat="43.97107" lon="5.13383">
        <ele>309</ele>
        <time>2021-05-29T14:39:55+02:00</time>
      </trkpt>
      <trkpt lat="43.9709" lon="5.13403">
        <ele>310</ele>
        <time>2021-05-29T14:40:12+02:00</time>
      </trkpt>
      <trkpt lat="43.97074" lon="5.13425">
        <ele>316</ele>
        <time>2021-05-29T14:40:31+02:00</time>
      </trkpt>
      <trkpt lat="43.97065" lon="5.13454">
        <ele>318</ele>
        <time>2021-05-29T14:40:49+02:00</time>
      </trkpt>
      <trkpt lat="43.97059" lon="5.13485">
        <ele>319</ele>
        <time>2021-05-29T14:41:09+02:00</time>
      </trkpt>
      <trkpt lat="43.97045" lon="5.1351">
        <ele>318</ele>
        <time>2021-05-29T14:41:32+02:00</time>
      </trkpt>
      <trkpt lat="43.97028" lon="5.13533">
        <ele>315</ele>
        <time>2021-05-29T14:41:55+02:00</time>
      </trkpt>
      <trkpt lat="43.97009" lon="5.13552">
        <ele>316</ele>
        <time>2021-05-29T14:42:16+02:00</time>
      </trkpt>
      <trkpt lat="43.96991" lon="5.13571">
        <ele>319</ele>
        <time>2021-05-29T14:42:34+02:00</time>
      </trkpt>
      <trkpt lat="43.96972" lon="5.13591">
        <ele>324</ele>
        <time>2021-05-29T14:42:55+02:00</time>
      </trkpt>
      <trkpt lat="43.96954" lon="5.13611">
        <ele>326</ele>
        <time>2021-05-29T14:43:13+02:00</time>
      </trkpt>
      <trkpt lat="43.96934" lon="5.13628">
        <ele>329</ele>
        <time>2021-05-29T14:43:33+02:00</time>
      </trkpt>
      <trkpt lat="43.96914" lon="5.13642">
        <ele>331</ele>
        <time>2021-05-29T14:43:53+02:00</time>
      </trkpt>
      <trkpt lat="43.96892" lon="5.13654">
        <ele>336</ele>
        <time>2021-05-29T14:44:15+02:00</time>
      </trkpt>
      <trkpt lat="43.96871" lon="5.13668">
        <ele>338</ele>
        <time>2021-05-29T14:44:35+02:00</time>
      </trkpt>
      <trkpt lat="43.96852" lon="5.13687">
        <ele>348</ele>
        <time>2021-05-29T14:44:54+02:00</time>
      </trkpt>
      <trkpt lat="43.96831" lon="5.137">
        <ele>355</ele>
        <time>2021-05-29T14:45:13+02:00</time>
      </trkpt>
      <trkpt lat="43.96808" lon="5.13701">
        <ele>338</ele>
        <time>2021-05-29T14:45:38+02:00</time>
      </trkpt>
      <trkpt lat="43.96785" lon="5.13708">
        <ele>324</ele>
        <time>2021-05-29T14:46:04+02:00</time>
      </trkpt>
      <trkpt lat="43.96764" lon="5.13721">
        <ele>329</ele>
        <time>2021-05-29T14:46:22+02:00</time>
      </trkpt>
      <trkpt lat="43.96744" lon="5.13739">
        <ele>337</ele>
        <time>2021-05-29T14:46:40+02:00</time>
      </trkpt>
      <trkpt lat="43.96723" lon="5.13753">
        <ele>348</ele>
        <time>2021-05-29T14:47:01+02:00</time>
      </trkpt>
      <trkpt lat="43.96702" lon="5.13769">
        <ele>352</ele>
        <time>2021-05-29T14:47:34+02:00</time>
      </trkpt>
      <trkpt lat="43.9668" lon="5.13779">
        <ele>351</ele>
        <time>2021-05-29T14:48:05+02:00</time>
      </trkpt>
      <trkpt lat="43.96658" lon="5.13785">
        <ele>347</ele>
        <time>2021-05-29T14:48:36+02:00</time>
      </trkpt>
      <trkpt lat="43.96637" lon="5.13797">
        <ele>341</ele>
        <time>2021-05-29T14:49:01+02:00</time>
      </trkpt>
      <trkpt lat="43.96614" lon="5.13802">
        <ele>321</ele>
        <time>2021-05-29T14:49:29+02:00</time>
      </trkpt>
      <trkpt lat="43.96592" lon="5.13829">
        <ele>356</ele>
        <time>2021-05-29T14:49:40+02:00</time>
      </trkpt>
      <trkpt lat="43.96575" lon="5.13852">
        <ele>366</ele>
        <time>2021-05-29T14:50:27+02:00</time>
      </trkpt>
      <trkpt lat="43.96554" lon="5.13863">
        <ele>367</ele>
        <time>2021-05-29T14:53:29+02:00</time>
      </trkpt>
      <trkpt lat="43.96531" lon="5.13852">
        <ele>364</ele>
        <time>2021-05-29T14:55:08+02:00</time>
      </trkpt>
      <trkpt lat="43.96554" lon="5.13853">
        <ele>363</ele>
        <time>2021-05-29T15:02:04+02:00</time>
      </trkpt>
      <trkpt lat="43.96546" lon="5.13883">
        <ele>371</ele>
        <time>2021-05-29T15:08:39+02:00</time>
      </trkpt>
      <trkpt lat="43.96536" lon="5.13911">
        <ele>367</ele>
        <time>2021-05-29T15:09:05+02:00</time>
      </trkpt>
      <trkpt lat="43.96519" lon="5.13934">
        <ele>374</ele>
        <time>2021-05-29T15:09:51+02:00</time>
      </trkpt>
      <trkpt lat="43.96525" lon="5.13964">
        <ele>380</ele>
        <time>2021-05-29T15:11:36+02:00</time>
      </trkpt>
      <trkpt lat="43.96516" lon="5.13993">
        <ele>379</ele>
        <time>2021-05-29T15:11:58+02:00</time>
      </trkpt>
      <trkpt lat="43.96501" lon="5.14019">
        <ele>383</ele>
        <time>2021-05-29T15:12:20+02:00</time>
      </trkpt>
      <trkpt lat="43.96496" lon="5.1405">
        <ele>386</ele>
        <time>2021-05-29T15:12:43+02:00</time>
      </trkpt>
      <trkpt lat="43.96473" lon="5.14054">
        <ele>391</ele>
        <time>2021-05-29T15:13:17+02:00</time>
      </trkpt>
      <trkpt lat="43.96453" lon="5.14039">
        <ele>408</ele>
        <time>2021-05-29T15:13:59+02:00</time>
      </trkpt>
      <trkpt lat="43.9643" lon="5.14033">
        <ele>409</ele>
        <time>2021-05-29T15:14:27+02:00</time>
      </trkpt>
      <trkpt lat="43.96414" lon="5.14011">
        <ele>421</ele>
        <time>2021-05-29T15:14:57+02:00</time>
      </trkpt>
      <trkpt lat="43.96419" lon="5.13979">
        <ele>425</ele>
        <time>2021-05-29T15:15:18+02:00</time>
      </trkpt>
      <trkpt lat="43.96433" lon="5.13953">
        <ele>417</ele>
        <time>2021-05-29T15:15:44+02:00</time>
      </trkpt>
      <trkpt lat="43.9641" lon="5.13957">
        <ele>418</ele>
        <time>2021-05-29T15:16:40+02:00</time>
      </trkpt>
      <trkpt lat="43.96388" lon="5.13951">
        <ele>421</ele>
        <time>2021-05-29T15:17:28+02:00</time>
      </trkpt>
      <trkpt lat="43.96372" lon="5.13928">
        <ele>431</ele>
        <time>2021-05-29T15:18:11+02:00</time>
      </trkpt>
      <trkpt lat="43.96353" lon="5.13909">
        <ele>434</ele>
        <time>2021-05-29T15:18:48+02:00</time>
      </trkpt>
      <trkpt lat="43.96334" lon="5.13892">
        <ele>438</ele>
        <time>2021-05-29T15:19:13+02:00</time>
      </trkpt>
      <trkpt lat="43.96315" lon="5.13874">
        <ele>441</ele>
        <time>2021-05-29T15:19:38+02:00</time>
      </trkpt>
      <trkpt lat="43.96293" lon="5.13865">
        <ele>442</ele>
        <time>2021-05-29T15:19:58+02:00</time>
      </trkpt>
      <trkpt lat="43.96316" lon="5.13874">
        <ele>439</ele>
        <time>2021-05-29T15:20:48+02:00</time>
      </trkpt>
      <trkpt lat="43.96336" lon="5.1389">
        <ele>436</ele>
        <time>2021-05-29T15:21:17+02:00</time>
      </trkpt>
      <trkpt lat="43.96354" lon="5.13909">
        <ele>434</ele>
        <time>2021-05-29T15:22:37+02:00</time>
      </trkpt>
      <trkpt lat="43.96373" lon="5.13926">
        <ele>440</ele>
        <time>2021-05-29T15:24:20+02:00</time>
      </trkpt>
      <trkpt lat="43.96391" lon="5.13947">
        <ele>428</ele>
        <time>2021-05-29T15:24:49+02:00</time>
      </trkpt>
      <trkpt lat="43.96412" lon="5.13961">
        <ele>417</ele>
        <time>2021-05-29T15:25:30+02:00</time>
      </trkpt>
      <trkpt lat="43.96422" lon="5.13991">
        <ele>411</ele>
        <time>2021-05-29T15:26:16+02:00</time>
      </trkpt>
      <trkpt lat="43.9642" lon="5.14022">
        <ele>409</ele>
        <time>2021-05-29T15:26:41+02:00</time>
      </trkpt>
      <trkpt lat="43.96441" lon="5.14034">
        <ele>403</ele>
        <time>2021-05-29T15:27:02+02:00</time>
      </trkpt>
      <trkpt lat="43.96464" lon="5.14031">
        <ele>398</ele>
        <time>2021-05-29T15:27:22+02:00</time>
      </trkpt>
      <trkpt lat="43.9648" lon="5.14053">
        <ele>386</ele>
        <time>2021-05-29T15:27:50+02:00</time>
      </trkpt>
      <trkpt lat="43.96497" lon="5.14075">
        <ele>381</ele>
        <time>2021-05-29T15:28:13+02:00</time>
      </trkpt>
      <trkpt lat="43.96491" lon="5.14105">
        <ele>384</ele>
        <time>2021-05-29T15:28:32+02:00</time>
      </trkpt>
      <trkpt lat="43.96475" lon="5.14128">
        <ele>382</ele>
        <time>2021-05-29T15:28:49+02:00</time>
      </trkpt>
      <trkpt lat="43.9646" lon="5.14152">
        <ele>381</ele>
        <time>2021-05-29T15:29:08+02:00</time>
      </trkpt>
      <trkpt lat="43.96442" lon="5.14173">
        <ele>384</ele>
        <time>2021-05-29T15:29:28+02:00</time>
      </trkpt>
      <trkpt lat="43.96421" lon="5.14163">
        <ele>389</ele>
        <time>2021-05-29T15:29:53+02:00</time>
      </trkpt>
      <trkpt lat="43.96399" lon="5.14171">
        <ele>390</ele>
        <time>2021-05-29T15:30:20+02:00</time>
      </trkpt>
      <trkpt lat="43.96383" lon="5.14194">
        <ele>397</ele>
        <time>2021-05-29T15:30:42+02:00</time>
      </trkpt>
      <trkpt lat="43.96363" lon="5.1421">
        <ele>402</ele>
        <time>2021-05-29T15:31:06+02:00</time>
      </trkpt>
      <trkpt lat="43.9634" lon="5.14213">
        <ele>412</ele>
        <time>2021-05-29T15:31:32+02:00</time>
      </trkpt>
      <trkpt lat="43.96317" lon="5.14224">
        <ele>416</ele>
        <time>2021-05-29T15:31:58+02:00</time>
      </trkpt>
      <trkpt lat="43.96295" lon="5.14231">
        <ele>419</ele>
        <time>2021-05-29T15:32:21+02:00</time>
      </trkpt>
      <trkpt lat="43.96279" lon="5.14255">
        <ele>421</ele>
        <time>2021-05-29T15:32:47+02:00</time>
      </trkpt>
      <trkpt lat="43.96266" lon="5.14283">
        <ele>422</ele>
        <time>2021-05-29T15:33:10+02:00</time>
      </trkpt>
      <trkpt lat="43.96251" lon="5.14308">
        <ele>421</ele>
        <time>2021-05-29T15:33:32+02:00</time>
      </trkpt>
      <trkpt lat="43.96239" lon="5.14335">
        <ele>428</ele>
        <time>2021-05-29T15:33:55+02:00</time>
      </trkpt>
      <trkpt lat="43.96229" lon="5.14364">
        <ele>436</ele>
        <time>2021-05-29T15:34:22+02:00</time>
      </trkpt>
      <trkpt lat="43.96237" lon="5.14333">
        <ele>446</ele>
        <time>2021-05-29T15:39:58+02:00</time>
      </trkpt>
      <trkpt lat="43.96247" lon="5.14303">
        <ele>444</ele>
        <time>2021-05-29T15:40:12+02:00</time>
      </trkpt>
      <trkpt lat="43.96263" lon="5.1428">
        <ele>434</ele>
        <time>2021-05-29T15:40:27+02:00</time>
      </trkpt>
      <trkpt lat="43.96276" lon="5.14254">
        <ele>432</ele>
        <time>2021-05-29T15:40:43+02:00</time>
      </trkpt>
      <trkpt lat="43.96291" lon="5.1423">
        <ele>432</ele>
        <time>2021-05-29T15:41:01+02:00</time>
      </trkpt>
      <trkpt lat="43.96314" lon="5.14219">
        <ele>431</ele>
        <time>2021-05-29T15:41:17+02:00</time>
      </trkpt>
      <trkpt lat="43.96335" lon="5.14208">
        <ele>423</ele>
        <time>2021-05-29T15:41:32+02:00</time>
      </trkpt>
      <trkpt lat="43.96358" lon="5.14202">
        <ele>407</ele>
        <time>2021-05-29T15:41:46+02:00</time>
      </trkpt>
      <trkpt lat="43.96379" lon="5.14189">
        <ele>404</ele>
        <time>2021-05-29T15:42:00+02:00</time>
      </trkpt>
      <trkpt lat="43.96396" lon="5.14168">
        <ele>402</ele>
        <time>2021-05-29T15:42:19+02:00</time>
      </trkpt>
      <trkpt lat="43.96418" lon="5.14157">
        <ele>397</ele>
        <time>2021-05-29T15:42:32+02:00</time>
      </trkpt>
      <trkpt lat="43.9644" lon="5.14169">
        <ele>387</ele>
        <time>2021-05-29T15:42:53+02:00</time>
      </trkpt>
      <trkpt lat="43.96454" lon="5.14142">
        <ele>394</ele>
        <time>2021-05-29T15:43:40+02:00</time>
      </trkpt>
      <trkpt lat="43.96476" lon="5.14135">
        <ele>392</ele>
        <time>2021-05-29T15:44:07+02:00</time>
      </trkpt>
      <trkpt lat="43.96499" lon="5.14125">
        <ele>394</ele>
        <time>2021-05-29T15:44:30+02:00</time>
      </trkpt>
      <trkpt lat="43.96515" lon="5.14104">
        <ele>392</ele>
        <time>2021-05-29T15:44:48+02:00</time>
      </trkpt>
      <trkpt lat="43.96526" lon="5.14075">
        <ele>395</ele>
        <time>2021-05-29T15:45:08+02:00</time>
      </trkpt>
      <trkpt lat="43.96543" lon="5.14053">
        <ele>396</ele>
        <time>2021-05-29T15:45:34+02:00</time>
      </trkpt>
      <trkpt lat="43.96556" lon="5.14026">
        <ele>398</ele>
        <time>2021-05-29T15:45:56+02:00</time>
      </trkpt>
      <trkpt lat="43.96568" lon="5.13998">
        <ele>409</ele>
        <time>2021-05-29T15:46:18+02:00</time>
      </trkpt>
      <trkpt lat="43.96581" lon="5.13971">
        <ele>402</ele>
        <time>2021-05-29T15:46:47+02:00</time>
      </trkpt>
      <trkpt lat="43.966" lon="5.13953">
        <ele>406</ele>
        <time>2021-05-29T15:47:32+02:00</time>
      </trkpt>
      <trkpt lat="43.96622" lon="5.13946">
        <ele>415</ele>
        <time>2021-05-29T15:48:02+02:00</time>
      </trkpt>
      <trkpt lat="43.96645" lon="5.13941">
        <ele>407</ele>
        <time>2021-05-29T15:48:22+02:00</time>
      </trkpt>
      <trkpt lat="43.96668" lon="5.13941">
        <ele>400</ele>
        <time>2021-05-29T15:49:29+02:00</time>
      </trkpt>
      <trkpt lat="43.9669" lon="5.13939">
        <ele>398</ele>
        <time>2021-05-29T16:13:59+02:00</time>
      </trkpt>
      <trkpt lat="43.96709" lon="5.13919">
        <ele>421</ele>
        <time>2021-05-29T16:14:56+02:00</time>
      </trkpt>
      <trkpt lat="43.96731" lon="5.1392">
        <ele>414</ele>
        <time>2021-05-29T16:15:24+02:00</time>
      </trkpt>
      <trkpt lat="43.96755" lon="5.13921">
        <ele>396</ele>
        <time>2021-05-29T16:16:20+02:00</time>
      </trkpt>
      <trkpt lat="43.96778" lon="5.13918">
        <ele>400</ele>
        <time>2021-05-29T16:17:29+02:00</time>
      </trkpt>
      <trkpt lat="43.968" lon="5.13921">
        <ele>406</ele>
        <time>2021-05-29T16:17:59+02:00</time>
      </trkpt>
      <trkpt lat="43.96823" lon="5.13918">
        <ele>416</ele>
        <time>2021-05-29T16:18:45+02:00</time>
      </trkpt>
      <trkpt lat="43.96846" lon="5.13919">
        <ele>421</ele>
        <time>2021-05-29T16:19:09+02:00</time>
      </trkpt>
      <trkpt lat="43.9687" lon="5.13915">
        <ele>420</ele>
        <time>2021-05-29T16:19:46+02:00</time>
      </trkpt>
      <trkpt lat="43.96894" lon="5.13913">
        <ele>422</ele>
        <time>2021-05-29T16:20:06+02:00</time>
      </trkpt>
      <trkpt lat="43.96917" lon="5.13911">
        <ele>419</ele>
        <time>2021-05-29T16:20:28+02:00</time>
      </trkpt>
      <trkpt lat="43.96938" lon="5.13901">
        <ele>422</ele>
        <time>2021-05-29T16:20:53+02:00</time>
      </trkpt>
      <trkpt lat="43.96961" lon="5.13896">
        <ele>417</ele>
        <time>2021-05-29T16:21:43+02:00</time>
      </trkpt>
      <trkpt lat="43.96982" lon="5.13881">
        <ele>416</ele>
        <time>2021-05-29T16:24:19+02:00</time>
      </trkpt>
      <trkpt lat="43.97003" lon="5.13872">
        <ele>417</ele>
        <time>2021-05-29T16:24:42+02:00</time>
      </trkpt>
      <trkpt lat="43.97027" lon="5.13867">
        <ele>415</ele>
        <time>2021-05-29T16:25:02+02:00</time>
      </trkpt>
      <trkpt lat="43.97049" lon="5.13857">
        <ele>413</ele>
        <time>2021-05-29T16:25:25+02:00</time>
      </trkpt>
      <trkpt lat="43.97072" lon="5.13857">
        <ele>413</ele>
        <time>2021-05-29T16:25:53+02:00</time>
      </trkpt>
      <trkpt lat="43.97093" lon="5.13867">
        <ele>408</ele>
        <time>2021-05-29T16:26:17+02:00</time>
      </trkpt>
      <trkpt lat="43.97116" lon="5.13867">
        <ele>405</ele>
        <time>2021-05-29T16:26:45+02:00</time>
      </trkpt>
      <trkpt lat="43.97129" lon="5.13894">
        <ele>392</ele>
        <time>2021-05-29T16:27:17+02:00</time>
      </trkpt>
      <trkpt lat="43.97152" lon="5.13899">
        <ele>397</ele>
        <time>2021-05-29T16:27:45+02:00</time>
      </trkpt>
      <trkpt lat="43.97168" lon="5.13875">
        <ele>399</ele>
        <time>2021-05-29T16:28:22+02:00</time>
      </trkpt>
      <trkpt lat="43.97157" lon="5.13848">
        <ele>395</ele>
        <time>2021-05-29T16:28:45+02:00</time>
      </trkpt>
      <trkpt lat="43.97143" lon="5.13823">
        <ele>393</ele>
        <time>2021-05-29T16:29:09+02:00</time>
      </trkpt>
      <trkpt lat="43.97128" lon="5.13799">
        <ele>393</ele>
        <time>2021-05-29T16:29:29+02:00</time>
      </trkpt>
      <trkpt lat="43.97127" lon="5.13768">
        <ele>393</ele>
        <time>2021-05-29T16:29:54+02:00</time>
      </trkpt>
      <trkpt lat="43.97149" lon="5.13759">
        <ele>386</ele>
        <time>2021-05-29T16:30:25+02:00</time>
      </trkpt>
      <trkpt lat="43.97167" lon="5.13738">
        <ele>378</ele>
        <time>2021-05-29T16:30:57+02:00</time>
      </trkpt>
      <trkpt lat="43.97189" lon="5.13735">
        <ele>372</ele>
        <time>2021-05-29T16:31:28+02:00</time>
      </trkpt>
      <trkpt lat="43.97213" lon="5.13738">
        <ele>373</ele>
        <time>2021-05-29T16:31:48+02:00</time>
      </trkpt>
      <trkpt lat="43.97236" lon="5.13735">
        <ele>373</ele>
        <time>2021-05-29T16:32:13+02:00</time>
      </trkpt>
      <trkpt lat="43.97258" lon="5.13728">
        <ele>367</ele>
        <time>2021-05-29T16:32:44+02:00</time>
      </trkpt>
      <trkpt lat="43.97281" lon="5.13724">
        <ele>361</ele>
        <time>2021-05-29T16:33:11+02:00</time>
      </trkpt>
      <trkpt lat="43.97303" lon="5.13713">
        <ele>356</ele>
        <time>2021-05-29T16:33:36+02:00</time>
      </trkpt>
      <trkpt lat="43.97326" lon="5.13708">
        <ele>348</ele>
        <time>2021-05-29T16:33:58+02:00</time>
      </trkpt>
      <trkpt lat="43.97349" lon="5.13704">
        <ele>348</ele>
        <time>2021-05-29T16:34:20+02:00</time>
      </trkpt>
      <trkpt lat="43.97371" lon="5.137">
        <ele>345</ele>
        <time>2021-05-29T16:34:40+02:00</time>
      </trkpt>
      <trkpt lat="43.97393" lon="5.1369">
        <ele>339</ele>
        <time>2021-05-29T16:34:58+02:00</time>
      </trkpt>
      <trkpt lat="43.97416" lon="5.13683">
        <ele>336</ele>
        <time>2021-05-29T16:35:18+02:00</time>
      </trkpt>
      <trkpt lat="43.97439" lon="5.13682">
        <ele>335</ele>
        <time>2021-05-29T16:35:37+02:00</time>
      </trkpt>
      <trkpt lat="43.97461" lon="5.13678">
        <ele>329</ele>
        <time>2021-05-29T16:35:58+02:00</time>
      </trkpt>
      <trkpt lat="43.97483" lon="5.13666">
        <ele>323</ele>
        <time>2021-05-29T16:36:21+02:00</time>
      </trkpt>
      <trkpt lat="43.97505" lon="5.13654">
        <ele>323</ele>
        <time>2021-05-29T16:36:34+02:00</time>
      </trkpt>
      <trkpt lat="43.97522" lon="5.13632">
        <ele>327</ele>
        <time>2021-05-29T16:37:01+02:00</time>
      </trkpt>
      <trkpt lat="43.97539" lon="5.1361">
        <ele>318</ele>
        <time>2021-05-29T16:37:23+02:00</time>
      </trkpt>
      <trkpt lat="43.97555" lon="5.13587">
        <ele>310</ele>
        <time>2021-05-29T16:37:44+02:00</time>
      </trkpt>
      <trkpt lat="43.97567" lon="5.1356">
        <ele>311</ele>
        <time>2021-05-29T16:38:41+02:00</time>
      </trkpt>
      <trkpt lat="43.97581" lon="5.13535">
        <ele>304</ele>
        <time>2021-05-29T16:39:00+02:00</time>
      </trkpt>
      <trkpt lat="43.97593" lon="5.13508">
        <ele>301</ele>
        <time>2021-05-29T16:39:16+02:00</time>
      </trkpt>
      <trkpt lat="43.97603" lon="5.1348">
        <ele>294</ele>
        <time>2021-05-29T16:39:37+02:00</time>
      </trkpt>
      <trkpt lat="43.97616" lon="5.13453">
        <ele>293</ele>
        <time>2021-05-29T16:39:54+02:00</time>
      </trkpt>
      <trkpt lat="43.97633" lon="5.13431">
        <ele>288</ele>
        <time>2021-05-29T16:40:13+02:00</time>
      </trkpt>
      <trkpt lat="43.97654" lon="5.13444">
        <ele>290</ele>
        <time>2021-05-29T16:40:58+02:00</time>
      </trkpt>
      <trkpt lat="43.97673" lon="5.13462">
        <ele>291</ele>
        <time>2021-05-29T16:41:24+02:00</time>
      </trkpt>
      <trkpt lat="43.97688" lon="5.13437">
        <ele>292</ele>
        <time>2021-05-29T16:41:50+02:00</time>
      </trkpt>
      <trkpt lat="43.97706" lon="5.13414">
        <ele>288</ele>
        <time>2021-05-29T16:42:09+02:00</time>
      </trkpt>
      <trkpt lat="43.97722" lon="5.13392">
        <ele>286</ele>
        <time>2021-05-29T16:42:29+02:00</time>
      </trkpt>
      <trkpt lat="43.9774" lon="5.13373">
        <ele>288</ele>
        <time>2021-05-29T16:42:47+02:00</time>
      </trkpt>
      <trkpt lat="43.97762" lon="5.13361">
        <ele>297</ele>
        <time>2021-05-29T16:43:06+02:00</time>
      </trkpt>
      <trkpt lat="43.97784" lon="5.13356">
        <ele>299</ele>
        <time>2021-05-29T16:43:23+02:00</time>
      </trkpt>
      <trkpt lat="43.97805" lon="5.13343">
        <ele>300</ele>
        <time>2021-05-29T16:43:43+02:00</time>
      </trkpt>
      <trkpt lat="43.97826" lon="5.13333">
        <ele>300</ele>
        <time>2021-05-29T16:44:03+02:00</time>
      </trkpt>
      <trkpt lat="43.9785" lon="5.1333">
        <ele>297</ele>
        <time>2021-05-29T16:44:21+02:00</time>
      </trkpt>
      <trkpt lat="43.97874" lon="5.13327">
        <ele>297</ele>
        <time>2021-05-29T16:44:38+02:00</time>
      </trkpt>
      <trkpt lat="43.97896" lon="5.13318">
        <ele>302</ele>
        <time>2021-05-29T16:45:00+02:00</time>
      </trkpt>
      <trkpt lat="43.97919" lon="5.13316">
        <ele>303</ele>
        <time>2021-05-29T16:45:19+02:00</time>
      </trkpt>
      <trkpt lat="43.97937" lon="5.13335">
        <ele>297</ele>
        <time>2021-05-29T16:45:41+02:00</time>
      </trkpt>
      <trkpt lat="43.97961" lon="5.13338">
        <ele>300</ele>
        <time>2021-05-29T16:46:49+02:00</time>
      </trkpt>
      <trkpt lat="43.97985" lon="5.13337">
        <ele>281</ele>
        <time>2021-05-29T16:47:24+02:00</time>
      </trkpt>
      <trkpt lat="43.98006" lon="5.13322">
        <ele>277</ele>
        <time>2021-05-29T16:47:56+02:00</time>
      </trkpt>
      <trkpt lat="43.98025" lon="5.13307">
        <ele>273</ele>
        <time>2021-05-29T16:48:23+02:00</time>
      </trkpt>
      <trkpt lat="43.98047" lon="5.13297">
        <ele>268</ele>
        <time>2021-05-29T16:49:01+02:00</time>
      </trkpt>
      <trkpt lat="43.9807" lon="5.133">
        <ele>259</ele>
        <time>2021-05-29T16:49:35+02:00</time>
      </trkpt>
      <trkpt lat="43.98092" lon="5.13287">
        <ele>263</ele>
        <time>2021-05-29T16:49:55+02:00</time>
      </trkpt>
      <trkpt lat="43.9811" lon="5.1327">
        <ele>264</ele>
        <time>2021-05-29T16:50:30+02:00</time>
      </trkpt>
      <trkpt lat="43.98134" lon="5.13272">
        <ele>269</ele>
        <time>2021-05-29T16:50:57+02:00</time>
      </trkpt>
      <trkpt lat="43.98157" lon="5.13266">
        <ele>268</ele>
        <time>2021-05-29T16:51:16+02:00</time>
      </trkpt>
      <trkpt lat="43.98178" lon="5.13255">
        <ele>277</ele>
        <time>2021-05-29T16:51:41+02:00</time>
      </trkpt>
      <trkpt lat="43.98198" lon="5.13238">
        <ele>281</ele>
        <time>2021-05-29T16:52:02+02:00</time>
      </trkpt>
      <trkpt lat="43.98218" lon="5.13221">
        <ele>282</ele>
        <time>2021-05-29T16:52:23+02:00</time>
      </trkpt>
      <trkpt lat="43.9824" lon="5.13215">
        <ele>284</ele>
        <time>2021-05-29T16:52:50+02:00</time>
      </trkpt>
      <trkpt lat="43.98263" lon="5.13215">
        <ele>287</ele>
        <time>2021-05-29T16:53:08+02:00</time>
      </trkpt>
      <trkpt lat="43.98285" lon="5.13206">
        <ele>293</ele>
        <time>2021-05-29T16:53:28+02:00</time>
      </trkpt>
      <trkpt lat="43.98305" lon="5.1319">
        <ele>293</ele>
        <time>2021-05-29T16:53:48+02:00</time>
      </trkpt>
      <trkpt lat="43.98326" lon="5.13176">
        <ele>296</ele>
        <time>2021-05-29T16:54:11+02:00</time>
      </trkpt>
      <trkpt lat="43.98348" lon="5.13179">
        <ele>299</ele>
        <time>2021-05-29T16:54:31+02:00</time>
      </trkpt>
      <trkpt lat="43.98363" lon="5.13154">
        <ele>299</ele>
        <time>2021-05-29T17:00:38+02:00</time>
      </trkpt>
      <trkpt lat="43.98365" lon="5.13122">
        <ele>295</ele>
        <time>2021-05-29T17:01:01+02:00</time>
      </trkpt>
      <trkpt lat="43.9835" lon="5.13098">
        <ele>294</ele>
        <time>2021-05-29T17:01:44+02:00</time>
      </trkpt>
      <trkpt lat="43.98335" lon="5.13074">
        <ele>290</ele>
        <time>2021-05-29T17:02:06+02:00</time>
      </trkpt>
      <trkpt lat="43.98327" lon="5.13045">
        <ele>286</ele>
        <time>2021-05-29T17:02:35+02:00</time>
      </trkpt>
      <trkpt lat="43.98336" lon="5.13017">
        <ele>279</ele>
        <time>2021-05-29T17:02:59+02:00</time>
      </trkpt>
      <trkpt lat="43.98343" lon="5.12986">
        <ele>278</ele>
        <time>2021-05-29T17:03:21+02:00</time>
      </trkpt>
      <trkpt lat="43.98329" lon="5.12962">
        <ele>275</ele>
        <time>2021-05-29T17:03:50+02:00</time>
      </trkpt>
      <trkpt lat="43.98329" lon="5.12931">
        <ele>266</ele>
        <time>2021-05-29T17:04:31+02:00</time>
      </trkpt>
      <trkpt lat="43.98309" lon="5.12915">
        <ele>257</ele>
        <time>2021-05-29T17:05:14+02:00</time>
      </trkpt>
      <trkpt lat="43.9832" lon="5.12887">
        <ele>256</ele>
        <time>2021-05-29T17:05:39+02:00</time>
      </trkpt>
      <trkpt lat="43.98335" lon="5.12863">
        <ele>254</ele>
        <time>2021-05-29T17:06:03+02:00</time>
      </trkpt>
      <trkpt lat="43.98329" lon="5.12832">
        <ele>251</ele>
        <time>2021-05-29T17:06:28+02:00</time>
      </trkpt>
      <trkpt lat="43.98331" lon="5.128">
        <ele>245</ele>
        <time>2021-05-29T17:06:53+02:00</time>
      </trkpt>
      <trkpt lat="43.98338" lon="5.1277">
        <ele>246</ele>
        <time>2021-05-29T17:07:13+02:00</time>
      </trkpt>
      <trkpt lat="43.98331" lon="5.1274">
        <ele>241</ele>
        <time>2021-05-29T17:07:34+02:00</time>
      </trkpt>
      <trkpt lat="43.98325" lon="5.1271">
        <ele>236</ele>
        <time>2021-05-29T17:07:55+02:00</time>
      </trkpt>
      <trkpt lat="43.98325" lon="5.12677">
        <ele>234</ele>
        <time>2021-05-29T17:08:15+02:00</time>
      </trkpt>
      <trkpt lat="43.98334" lon="5.12648">
        <ele>238</ele>
        <time>2021-05-29T17:08:29+02:00</time>
      </trkpt>
      <trkpt lat="43.98333" lon="5.12616">
        <ele>243</ele>
        <time>2021-05-29T17:08:46+02:00</time>
      </trkpt>
      <trkpt lat="43.98333" lon="5.12584">
        <ele>242</ele>
        <time>2021-05-29T17:09:11+02:00</time>
      </trkpt>
      <trkpt lat="43.98333" lon="5.12553">
        <ele>243</ele>
        <time>2021-05-29T17:09:29+02:00</time>
      </trkpt>
      <trkpt lat="43.9833" lon="5.12522">
        <ele>240</ele>
        <time>2021-05-29T17:09:49+02:00</time>
      </trkpt>
      <trkpt lat="43.98327" lon="5.12489">
        <ele>237</ele>
        <time>2021-05-29T17:10:14+02:00</time>
      </trkpt>
      <trkpt lat="43.9831" lon="5.1247">
        <ele>242</ele>
        <time>2021-05-29T17:10:47+02:00</time>
      </trkpt>
      <trkpt lat="43.9829" lon="5.12486">
        <ele>245</ele>
        <time>2021-05-29T17:11:10+02:00</time>
      </trkpt>
      <trkpt lat="43.98267" lon="5.12493">
        <ele>241</ele>
        <time>2021-05-29T17:11:30+02:00</time>
      </trkpt>
      <trkpt lat="43.98287" lon="5.12477">
        <ele>243</ele>
        <time>2021-05-29T17:12:01+02:00</time>
      </trkpt>
      <trkpt lat="43.98307" lon="5.12459">
        <ele>245</ele>
        <time>2021-05-29T17:12:53+02:00</time>
      </trkpt>
      <trkpt lat="43.98315" lon="5.12428">
        <ele>244</ele>
        <time>2021-05-29T17:13:16+02:00</time>
      </trkpt>
      <trkpt lat="43.98332" lon="5.12407">
        <ele>244</ele>
        <time>2021-05-29T17:13:37+02:00</time>
      </trkpt>
      <trkpt lat="43.9835" lon="5.12387">
        <ele>250</ele>
        <time>2021-05-29T17:13:57+02:00</time>
      </trkpt>
      <trkpt lat="43.98352" lon="5.12355">
        <ele>248</ele>
        <time>2021-05-29T17:14:16+02:00</time>
      </trkpt>
      <trkpt lat="43.98355" lon="5.12323">
        <ele>246</ele>
        <time>2021-05-29T17:14:35+02:00</time>
      </trkpt>
      <trkpt lat="43.98354" lon="5.12291">
        <ele>255</ele>
        <time>2021-05-29T17:14:53+02:00</time>
      </trkpt>
      <trkpt lat="43.98353" lon="5.12257">
        <ele>264</ele>
        <time>2021-05-29T17:15:16+02:00</time>
      </trkpt>
      <trkpt lat="43.98331" lon="5.12267">
        <ele>259</ele>
        <time>2021-05-29T17:18:39+02:00</time>
      </trkpt>
      <trkpt lat="43.98313" lon="5.12248">
        <ele>265</ele>
        <time>2021-05-29T17:19:30+02:00</time>
      </trkpt>
      <trkpt lat="43.98309" lon="5.12279">
        <ele>279</ele>
        <time>2021-05-29T17:20:12+02:00</time>
      </trkpt>
      <trkpt lat="43.9829" lon="5.12261">
        <ele>280</ele>
        <time>2021-05-29T17:20:47+02:00</time>
      </trkpt>
      <trkpt lat="43.98293" lon="5.12229">
        <ele>287</ele>
        <time>2021-05-29T17:21:11+02:00</time>
      </trkpt>
      <trkpt lat="43.98298" lon="5.12199">
        <ele>286</ele>
        <time>2021-05-29T17:21:34+02:00</time>
      </trkpt>
      <trkpt lat="43.98309" lon="5.12171">
        <ele>284</ele>
        <time>2021-05-29T17:21:53+02:00</time>
      </trkpt>
      <trkpt lat="43.9832" lon="5.12144">
        <ele>289</ele>
        <time>2021-05-29T17:22:15+02:00</time>
      </trkpt>
      <trkpt lat="43.98329" lon="5.12115">
        <ele>290</ele>
        <time>2021-05-29T17:22:36+02:00</time>
      </trkpt>
      <trkpt lat="43.98336" lon="5.12085">
        <ele>291</ele>
        <time>2021-05-29T17:22:58+02:00</time>
      </trkpt>
      <trkpt lat="43.98339" lon="5.12054">
        <ele>288</ele>
        <time>2021-05-29T17:23:19+02:00</time>
      </trkpt>
      <trkpt lat="43.98336" lon="5.12021">
        <ele>287</ele>
        <time>2021-05-29T17:23:45+02:00</time>
      </trkpt>
      <trkpt lat="43.98321" lon="5.11997">
        <ele>286</ele>
        <time>2021-05-29T17:25:34+02:00</time>
      </trkpt>
      <trkpt lat="43.9834" lon="5.12016">
        <ele>291</ele>
        <time>2021-05-29T17:26:29+02:00</time>
      </trkpt>
      <trkpt lat="43.98339" lon="5.12047">
        <ele>289</ele>
        <time>2021-05-29T17:27:36+02:00</time>
      </trkpt>
      <trkpt lat="43.98337" lon="5.12078">
        <ele>291</ele>
        <time>2021-05-29T17:30:59+02:00</time>
      </trkpt>
      <trkpt lat="43.98331" lon="5.12108">
        <ele>292</ele>
        <time>2021-05-29T17:31:24+02:00</time>
      </trkpt>
      <trkpt lat="43.98321" lon="5.12137">
        <ele>289</ele>
        <time>2021-05-29T17:31:45+02:00</time>
      </trkpt>
      <trkpt lat="43.9831" lon="5.12165">
        <ele>287</ele>
        <time>2021-05-29T17:32:07+02:00</time>
      </trkpt>
      <trkpt lat="43.98299" lon="5.12194">
        <ele>285</ele>
        <time>2021-05-29T17:32:31+02:00</time>
      </trkpt>
      <trkpt lat="43.98295" lon="5.12226">
        <ele>289</ele>
        <time>2021-05-29T17:32:53+02:00</time>
      </trkpt>
      <trkpt lat="43.98295" lon="5.12258">
        <ele>287</ele>
        <time>2021-05-29T17:33:18+02:00</time>
      </trkpt>
      <trkpt lat="43.98318" lon="5.12265">
        <ele>274</ele>
        <time>2021-05-29T17:34:47+02:00</time>
      </trkpt>
      <trkpt lat="43.9834" lon="5.12259">
        <ele>265</ele>
        <time>2021-05-29T17:35:23+02:00</time>
      </trkpt>
      <trkpt lat="43.9835" lon="5.1223">
        <ele>259</ele>
        <time>2021-05-29T17:36:38+02:00</time>
      </trkpt>
      <trkpt lat="43.98356" lon="5.12199">
        <ele>264</ele>
        <time>2021-05-29T17:37:01+02:00</time>
      </trkpt>
      <trkpt lat="43.98353" lon="5.12231">
        <ele>262</ele>
        <time>2021-05-29T17:38:03+02:00</time>
      </trkpt>
      <trkpt lat="43.9836" lon="5.12202">
        <ele>257</ele>
        <time>2021-05-29T17:38:42+02:00</time>
      </trkpt>
      <trkpt lat="43.98372" lon="5.12175">
        <ele>260</ele>
        <time>2021-05-29T17:39:01+02:00</time>
      </trkpt>
      <trkpt lat="43.98383" lon="5.12147">
        <ele>260</ele>
        <time>2021-05-29T17:39:20+02:00</time>
      </trkpt>
      <trkpt lat="43.98395" lon="5.12121">
        <ele>261</ele>
        <time>2021-05-29T17:39:39+02:00</time>
      </trkpt>
      <trkpt lat="43.98407" lon="5.12094">
        <ele>252</ele>
        <time>2021-05-29T17:39:58+02:00</time>
      </trkpt>
      <trkpt lat="43.98413" lon="5.12062">
        <ele>253</ele>
        <time>2021-05-29T17:40:18+02:00</time>
      </trkpt>
      <trkpt lat="43.98422" lon="5.12033">
        <ele>250</ele>
        <time>2021-05-29T17:41:33+02:00</time>
      </trkpt>
      <trkpt lat="43.98423" lon="5.12">
        <ele>245</ele>
        <time>2021-05-29T17:41:56+02:00</time>
      </trkpt>
      <trkpt lat="43.98418" lon="5.11969">
        <ele>245</ele>
        <time>2021-05-29T17:42:20+02:00</time>
      </trkpt>
      <trkpt lat="43.98414" lon="5.11937">
        <ele>243</ele>
        <time>2021-05-29T17:42:46+02:00</time>
      </trkpt>
      <trkpt lat="43.98414" lon="5.11906">
        <ele>234</ele>
        <time>2021-05-29T17:43:19+02:00</time>
      </trkpt>
      <trkpt lat="43.98426" lon="5.11878">
        <ele>234</ele>
        <time>2021-05-29T17:44:17+02:00</time>
      </trkpt>
      <trkpt lat="43.98445" lon="5.1186">
        <ele>232</ele>
        <time>2021-05-29T17:44:58+02:00</time>
      </trkpt>
      <trkpt lat="43.98467" lon="5.11871">
        <ele>226</ele>
        <time>2021-05-29T17:45:39+02:00</time>
      </trkpt>
      <trkpt lat="43.98446" lon="5.11859">
        <ele>232</ele>
        <time>2021-05-29T17:47:02+02:00</time>
      </trkpt>
      <trkpt lat="43.98424" lon="5.11848">
        <ele>234</ele>
        <time>2021-05-29T17:47:26+02:00</time>
      </trkpt>
      <trkpt lat="43.98415" lon="5.1182">
        <ele>236</ele>
        <time>2021-05-29T17:47:45+02:00</time>
      </trkpt>
      <trkpt lat="43.98392" lon="5.11818">
        <ele>235</ele>
        <time>2021-05-29T17:48:13+02:00</time>
      </trkpt>
      <trkpt lat="43.98372" lon="5.11831">
        <ele>242</ele>
        <time>2021-05-29T17:48:51+02:00</time>
      </trkpt>
      <trkpt lat="43.98351" lon="5.11847">
        <ele>229</ele>
        <time>2021-05-29T17:49:15+02:00</time>
      </trkpt>
      <trkpt lat="43.98332" lon="5.11867">
        <ele>240</ele>
        <time>2021-05-29T17:49:48+02:00</time>
      </trkpt>
    </trkseg>
  </trk>
</gpx>